Time;durP1;ratioP1;P1;durP2;ratioP2;P2;SDS_P1;SDS_P2;PMS_P1;PMS_P2;Temp;Humidity;BMP_temperature;BMP_pressure;BME280_temperature;BME280_humidity;BME280_pressure;Samples;Min_cycle;Max_cycle;Signal;HPM_P1;HPM_P2
2022/03/15 00:01:57;;;;;;;;;;;;;;;5.41;92.11;102815.38;5097205;27;19926;-76
2022/03/15 00:04:23;;;;;;;;;;;;;;;5.37;92.03;102815.13;5107297;28;19928;-76
2022/03/15 00:06:48;;;;;;;;;;;;;;;5.35;91.21;102824.31;5104864;28;20297;-76
2022/03/15 00:09:14;;;;;;;;;;;;;;;5.30;91.39;102811.97;5103426;28;19924;-75
2022/03/15 00:11:40;;;;;;;;;;;;;;;5.29;92.03;102805.97;5107964;28;19915;-76
2022/03/15 00:14:05;;;;;;;;;;;;;;;5.27;92.80;102804.94;5103571;28;19951;-75
2022/03/15 00:16:31;;;;;;;;;;;;;;;5.27;95.41;102807.47;5098985;28;19951;-75
2022/03/15 00:18:56;;;;;;;;;;;;;;;5.29;95.54;102805.97;5109463;28;19979;-76
2022/03/15 00:21:22;;;;;;;;;;;;;;;5.33;96.96;102812.19;5107018;28;19963;-76
2022/03/15 00:23:47;;;;;;;;;;;;;;;5.34;95.81;102803.81;5108964;28;19924;-75
2022/03/15 00:26:12;;;;;;;;;;;;;;;5.35;94.61;102803.03;5106164;28;19942;-76
2022/03/15 00:28:38;;;;;;;;;;;;;;;5.33;95.20;102800.31;5106836;28;20428;-76
2022/03/15 00:31:04;;;;;;;;;;;;;;;5.35;96.12;102809.00;5108547;28;19969;-75
2022/03/15 00:33:30;;;;;;;;;;;;;;;5.37;95.86;102804.03;5106391;28;20338;-76
2022/03/15 00:35:56;;;;;;;;;;;;;;;5.40;95.34;102804.28;5104511;28;19920;-76
2022/03/15 00:38:21;;;;;;;;;;;;;;;5.41;94.55;102807.72;5104013;28;19976;-76
2022/03/15 00:40:47;;;;;;;;;;;;;;;5.42;95.77;102804.41;5104985;28;19920;-76
2022/03/15 00:43:12;;;;;;;;;;;;;;;5.41;95.04;102806.06;5106658;28;21669;-76
2022/03/15 00:45:37;;;;;;;;;;;;;;;5.42;95.49;102797.63;5100066;28;19920;-76
2022/03/15 00:48:03;;;;;;;;;;;;;;;5.44;95.53;102801.19;5095515;28;20302;-76
2022/03/15 00:50:29;;;;;;;;;;;;;;;5.44;97.23;102796.09;5100014;28;19926;-76
2022/03/15 00:52:56;;;;;;;;;;;;;;;5.45;95.26;102795.31;5105370;28;19959;-76
2022/03/15 00:55:21;;;;;;;;;;;;;;;5.44;95.08;102790.09;5104232;28;19920;-76
2022/03/15 00:57:46;;;;;;;;;;;;;;;5.44;95.92;102785.88;5107370;28;19930;-76
2022/03/15 01:00:13;;;;;;;;;;;;;;;5.45;97.34;102784.22;5100350;28;19920;-75
2022/03/15 01:02:39;;;;;;;;;;;;;;;5.47;98.56;102793.78;5101453;28;19928;-76
2022/03/15 01:05:04;;;;;;;;;;;;;;;5.51;99.03;102784.69;5100053;28;19922;-76
2022/03/15 01:07:29;;;;;;;;;;;;;;;5.55;98.56;102789.28;5106264;28;19927;-76
2022/03/15 01:09:55;;;;;;;;;;;;;;;5.57;96.44;102795.41;5103645;28;19941;-76
2022/03/15 01:12:20;;;;;;;;;;;;;;;5.54;95.99;102793.50;5100309;28;19969;-76
2022/03/15 01:14:45;;;;;;;;;;;;;;;5.52;97.17;102795.06;5098236;28;20006;-76
2022/03/15 01:17:11;;;;;;;;;;;;;;;5.54;98.28;102787.50;5107451;28;19966;-75
2022/03/15 01:19:36;;;;;;;;;;;;;;;5.54;97.38;102788.41;5102620;28;19958;-76
2022/03/15 01:22:02;;;;;;;;;;;;;;;5.55;97.51;102787.63;5100226;28;19954;-75
2022/03/15 01:24:27;;;;;;;;;;;;;;;5.54;96.29;102785.84;5100670;28;19920;-75
2022/03/15 01:26:54;;;;;;;;;;;;;;;5.50;95.19;102783.81;5105572;28;20016;-78
2022/03/15 01:29:20;;;;;;;;;;;;;;;5.45;95.51;102789.31;5104792;28;19927;-77
2022/03/15 01:31:46;;;;;;;;;;;;;;;5.44;95.05;102785.00;5105334;28;20382;-77
2022/03/15 01:34:12;;;;;;;;;;;;;;;5.38;95.21;102778.63;5105280;28;20014;-76
2022/03/15 01:36:37;;;;;;;;;;;;;;;5.36;94.20;102772.53;5104621;28;20053;-76
2022/03/15 01:39:04;;;;;;;;;;;;;;;5.33;94.23;102776.47;5114798;28;19928;-76
2022/03/15 01:41:29;;;;;;;;;;;;;;;5.29;93.94;102767.72;5126602;28;19927;-76
2022/03/15 01:43:54;;;;;;;;;;;;;;;5.28;94.47;102763.38;5125987;28;19942;-77
2022/03/15 01:46:20;;;;;;;;;;;;;;;5.26;94.64;102769.13;5098468;28;19998;-75
2022/03/15 01:48:45;;;;;;;;;;;;;;;5.23;94.19;102762.13;5107105;28;19923;-76
2022/03/15 01:51:13;;;;;;;;;;;;;;;5.21;94.57;102761.09;5107764;28;19920;-75
2022/03/15 01:53:38;;;;;;;;;;;;;;;5.20;95.04;102759.31;5103819;28;19945;-76
2022/03/15 01:56:05;;;;;;;;;;;;;;;5.18;95.91;102753.22;5093086;28;19920;-76
2022/03/15 01:58:30;;;;;;;;;;;;;;;5.20;95.40;102754.22;5102974;28;19923;-76
2022/03/15 02:00:55;;;;;;;;;;;;;;;5.18;94.81;102759.97;5106849;28;20281;-76
2022/03/15 02:03:21;;;;;;;;;;;;;;;5.14;95.60;102745.19;5103251;28;21149;-77
2022/03/15 02:05:46;;;;;;;;;;;;;;;5.14;96.09;102740.97;5101600;28;19928;-77
2022/03/15 02:08:15;;;;;;;;;;;;;;;5.15;96.05;102752.94;5105115;28;19924;-77
2022/03/15 02:10:41;;;;;;;;;;;;;;;5.14;95.34;102753.72;5101724;27;19931;-77
2022/03/15 02:13:07;;;;;;;;;;;;;;;5.13;94.66;102756.16;5106410;28;19928;-77
2022/03/15 02:15:33;;;;;;;;;;;;;;;5.10;93.81;102744.06;5105612;27;19928;-77
2022/03/15 02:17:58;;;;;;;;;;;;;;;5.08;95.07;102750.69;5108391;27;20378;-77
2022/03/15 02:20:23;;;;;;;;;;;;;;;5.07;95.74;102742.16;5098563;27;19919;-76
2022/03/15 02:22:49;;;;;;;;;;;;;;;5.07;95.95;102737.03;5101233;28;20014;-77
2022/03/15 02:25:14;;;;;;;;;;;;;;;5.09;96.16;102732.06;5103540;28;19927;-77
2022/03/15 02:27:39;;;;;;;;;;;;;;;5.08;95.13;102732.84;5103092;28;19922;-77
2022/03/15 02:30:06;;;;;;;;;;;;;;;5.07;96.22;102725.94;5101715;28;20374;-77
2022/03/15 02:32:34;;;;;;;;;;;;;;;5.08;95.38;102722.63;5099998;28;19915;-77
2022/03/15 02:35:00;;;;;;;;;;;;;;;5.08;96.10;102718.41;5104189;28;19927;-77
2022/03/15 02:37:25;;;;;;;;;;;;;;;5.08;97.11;102717.53;5104676;28;19927;-77
2022/03/15 02:39:50;;;;;;;;;;;;;;;5.09;95.72;102717.66;5103575;28;19974;-76
2022/03/15 02:42:16;;;;;;;;;;;;;;;5.09;96.11;102720.19;5097563;28;19930;-76
2022/03/15 02:44:41;;;;;;;;;;;;;;;5.12;95.42;102719.56;5103029;28;19930;-76
2022/03/15 02:47:06;;;;;;;;;;;;;;;5.10;95.46;102708.38;5105579;28;20030;-76
2022/03/15 02:49:32;;;;;;;;;;;;;;;5.09;95.84;102706.56;5105215;28;20344;-76
2022/03/15 02:51:57;;;;;;;;;;;;;;;5.08;94.95;102709.88;5104199;28;20003;-77
2022/03/15 02:54:22;;;;;;;;;;;;;;;5.07;94.26;102708.09;5104758;28;19924;-76
2022/03/15 02:56:49;;;;;;;;;;;;;;;5.07;95.38;102708.09;5101343;28;19924;-76
2022/03/15 02:59:14;;;;;;;;;;;;;;;5.05;93.32;102696.91;5102028;28;19928;-76
2022/03/15 03:01:43;;;;;;;;;;;;;;;5.04;94.59;102697.69;5101142;28;20283;-77
2022/03/15 03:04:10;;;;;;;;;;;;;;;5.02;94.86;102699.19;5095407;28;20401;-77
2022/03/15 03:06:36;;;;;;;;;;;;;;;5.02;92.20;102696.66;5097879;28;19976;-76
2022/03/15 03:09:01;;;;;;;;;;;;;;;5.00;93.96;102688.88;5101846;28;19919;-77
2022/03/15 03:11:26;;;;;;;;;;;;;;;4.99;95.01;102687.09;5109601;27;19920;-76
2022/03/15 03:13:58;;;;;;;;;;;;;;;5.00;94.86;102688.00;5104678;28;19928;-76
2022/03/15 03:16:24;;;;;;;;;;;;;;;5.00;95.49;102680.34;5106184;27;19930;-76
2022/03/15 03:18:54;;;;;;;;;;;;;;;5.00;93.92;102680.34;5104254;28;19965;-76
2022/03/15 03:21:20;;;;;;;;;;;;;;;4.98;93.81;102680.22;5102109;28;19972;-77
2022/03/15 03:23:46;;;;;;;;;;;;;;;4.97;93.02;102677.53;5106136;27;19961;-77
2022/03/15 03:26:11;;;;;;;;;;;;;;;4.94;93.45;102668.00;5102374;28;19927;-76
2022/03/15 03:28:37;;;;;;;;;;;;;;;4.94;93.53;102665.44;5106189;27;20381;-77
2022/03/15 03:31:04;;;;;;;;;;;;;;;4.96;93.53;102669.00;5109374;27;19951;-75
2022/03/15 03:33:30;;;;;;;;;;;;;;;4.96;93.33;102669.00;5105956;27;19924;-76
2022/03/15 03:35:55;;;;;;;;;;;;;;;4.95;94.65;102674.88;5107566;28;19961;-77
2022/03/15 03:38:20;;;;;;;;;;;;;;;4.97;94.36;102678.44;5099166;27;19924;-76
2022/03/15 03:40:45;;;;;;;;;;;;;;;4.99;94.71;102671.81;5101212;28;19977;-76
2022/03/15 03:43:11;;;;;;;;;;;;;;;4.99;94.02;102666.72;5103232;27;19934;-76
2022/03/15 03:45:36;;;;;;;;;;;;;;;4.99;93.94;102660.72;5103670;28;20081;-76
2022/03/15 03:48:02;;;;;;;;;;;;;;;4.98;93.54;102666.59;5103143;27;19942;-76
2022/03/15 03:50:27;;;;;;;;;;;;;;;4.97;93.47;102670.78;5102982;28;19934;-76
2022/03/15 03:52:53;;;;;;;;;;;;;;;4.95;93.13;102664.69;5102805;27;19930;-76
2022/03/15 03:55:18;;;;;;;;;;;;;;;4.95;92.70;102667.22;5102966;28;20006;-76
2022/03/15 03:57:43;;;;;;;;;;;;;;;4.94;92.53;102668.00;5102478;28;20014;-77
2022/03/15 04:00:09;;;;;;;;;;;;;;;4.94;92.97;102665.44;5109000;27;19953;-77
2022/03/15 04:02:34;;;;;;;;;;;;;;;4.94;93.00;102673.09;5104077;28;19923;-76
2022/03/15 04:05:00;;;;;;;;;;;;;;;4.91;92.62;102669.41;5104654;28;19923;-77
2022/03/15 04:07:26;;;;;;;;;;;;;;;4.90;94.29;102673.63;5100686;28;19955;-77
2022/03/15 04:09:51;;;;;;;;;;;;;;;4.92;93.02;102671.22;5103759;28;19970;-77
2022/03/15 04:12:22;;;;;;;;;;;;;;;4.90;92.92;102671.06;5096464;28;19935;-77
2022/03/15 04:14:48;;;;;;;;;;;;;;;4.89;92.63;102673.50;5105260;28;19923;-76
2022/03/15 04:17:14;;;;;;;;;;;;;;;4.88;93.57;102672.63;5106389;28;20351;-76
2022/03/15 04:19:39;;;;;;;;;;;;;;;4.89;93.51;102668.41;5102571;28;19924;-75
2022/03/15 04:22:05;;;;;;;;;;;;;;;4.91;92.94;102661.75;5107195;28;19916;-76
2022/03/15 04:24:31;;;;;;;;;;;;;;;4.92;93.07;102661.00;5104708;28;20270;-75
2022/03/15 04:26:59;;;;;;;;;;;;;;;4.92;94.76;102663.56;5122418;28;19937;-77
2022/03/15 04:29:24;;;;;;;;;;;;;;;4.93;93.32;102661.13;5123610;28;19924;-80
2022/03/15 04:31:50;;;;;;;;;;;;;;;4.92;93.40;102674.66;5125539;28;19928;-78
2022/03/15 04:34:15;;;;;;;;;;;;;;;4.90;93.10;102668.50;5111758;28;19920;-76
2022/03/15 04:36:44;;;;;;;;;;;;;;;4.87;92.93;102670.84;5105204;28;19919;-77
2022/03/15 04:39:10;;;;;;;;;;;;;;;4.87;92.90;102663.19;5107380;28;19920;-76
2022/03/15 04:41:35;;;;;;;;;;;;;;;4.87;94.26;102654.66;5106280;27;20018;-76
2022/03/15 04:44:01;;;;;;;;;;;;;;;4.87;93.33;102654.66;5110367;27;19915;-76
2022/03/15 04:46:26;;;;;;;;;;;;;;;4.87;93.82;102657.19;5101868;28;19927;-76
2022/03/15 04:48:52;;;;;;;;;;;;;;;4.86;93.19;102650.34;5104121;28;19969;-76
2022/03/15 04:51:18;;;;;;;;;;;;;;;4.84;92.96;102655.28;5105002;28;20465;-76
2022/03/15 04:53:43;;;;;;;;;;;;;;;4.80;93.17;102658.38;5104219;27;20004;-76
2022/03/15 04:56:08;;;;;;;;;;;;;;;4.79;93.35;102654.94;5106318;28;20015;-76
2022/03/15 04:58:34;;;;;;;;;;;;;;;4.79;93.09;102648.91;5108129;28;19931;-77
2022/03/15 05:00:59;;;;;;;;;;;;;;;4.78;93.37;102653.13;5105139;28;20377;-76
2022/03/15 05:03:24;;;;;;;;;;;;;;;4.78;93.08;102642.06;5107066;27;20034;-77
2022/03/15 05:05:50;;;;;;;;;;;;;;;4.77;93.77;102647.91;5101368;28;19920;-77
2022/03/15 05:08:16;;;;;;;;;;;;;;;4.76;93.55;102641.94;5104494;28;20299;-76
2022/03/15 05:13:26;;;;;;;;;;;;;;;4.76;93.79;102641.06;5104828;28;19958;-76
2022/03/15 05:15:53;;;;;;;;;;;;;;;4.74;94.68;102647.69;5105820;28;19926;-76
2022/03/15 05:18:18;;;;;;;;;;;;;;;4.73;94.06;102639.16;5104359;28;20002;-77
2022/03/15 05:20:43;;;;;;;;;;;;;;;4.74;93.69;102646.03;5096962;28;20014;-77
2022/03/15 05:23:09;;;;;;;;;;;;;;;4.72;93.88;102642.44;5104480;28;19962;-77
2022/03/15 05:25:34;;;;;;;;;;;;;;;4.70;93.50;102640.56;5105895;28;19924;-76
2022/03/15 05:27:59;;;;;;;;;;;;;;;4.68;92.25;102635.34;5098105;28;19919;-76
2022/03/15 05:30:24;;;;;;;;;;;;;;;4.68;93.64;102637.00;5103070;28;19920;-76
2022/03/15 05:32:50;;;;;;;;;;;;;;;4.68;93.65;102642.09;5098657;28;19976;-76
2022/03/15 05:35:15;;;;;;;;;;;;;;;4.69;93.14;102637.13;5105177;28;19924;-77
2022/03/15 05:37:41;;;;;;;;;;;;;;;4.70;94.93;102636.34;5101351;27;20278;-75
2022/03/15 05:40:07;;;;;;;;;;;;;;;4.71;94.36;102633.03;5101973;28;19964;-76
2022/03/15 05:42:32;;;;;;;;;;;;;;;4.74;94.28;102635.84;5101321;28;20442;-76
2022/03/15 05:44:57;;;;;;;;;;;;;;;4.74;95.28;102629.84;5103845;27;20560;-76
2022/03/15 05:47:23;;;;;;;;;;;;;;;4.78;95.26;102629.31;5103906;28;21199;-76
2022/03/15 05:49:48;;;;;;;;;;;;;;;4.82;93.90;102624.59;5101113;28;19920;-76
2022/03/15 05:52:13;;;;;;;;;;;;;;;4.81;93.34;102621.91;5103282;28;19980;-77
2022/03/15 05:54:38;;;;;;;;;;;;;;;4.79;93.50;102621.81;5098203;28;19926;-77
2022/03/15 05:57:04;;;;;;;;;;;;;;;4.78;94.36;102625.09;5101791;28;19932;-76
2022/03/15 05:59:29;;;;;;;;;;;;;;;4.78;93.56;102617.44;5103079;28;20309;-76
2022/03/15 06:01:54;;;;;;;;;;;;;;;4.78;94.16;102612.34;5103263;28;19963;-76
2022/03/15 06:04:23;;;;;;;;;;;;;;;4.80;94.73;102613.38;5101899;28;19924;-76
2022/03/15 06:06:49;;;;;;;;;;;;;;;4.84;94.30;102615.38;5089936;27;19934;-76
2022/03/15 06:09:14;;;;;;;;;;;;;;;4.85;92.81;102611.19;5080943;27;19924;-75
2022/03/15 06:11:39;;;;;;;;;;;;;;;4.85;93.46;102613.72;5097478;28;19962;-77
2022/03/15 06:14:05;;;;;;;;;;;;;;;4.86;94.47;102599.34;5100291;28;20298;-76
2022/03/15 06:16:31;;;;;;;;;;;;;;;4.89;94.43;102603.00;5103752;28;20332;-76
2022/03/15 06:18:56;;;;;;;;;;;;;;;4.92;93.25;102603.28;5106356;28;19970;-76
2022/03/15 06:21:21;;;;;;;;;;;;;;;4.92;92.75;102598.19;5095640;28;20350;-77
2022/03/15 06:23:46;;;;;;;;;;;;;;;4.95;93.66;102594.97;5101550;28;20328;-77
2022/03/15 06:26:12;;;;;;;;;;;;;;;4.97;94.37;102603.59;5103084;28;20007;-77
2022/03/15 06:28:37;;;;;;;;;;;;;;;4.99;93.23;102607.19;5095320;28;19927;-77
2022/03/15 06:31:03;;;;;;;;;;;;;;;5.00;93.28;102608.97;5102056;28;19942;-77
2022/03/15 06:33:29;;;;;;;;;;;;;;;4.99;92.70;102608.06;5103319;28;19920;-76
2022/03/15 06:35:54;;;;;;;;;;;;;;;5.01;94.21;102613.28;5101323;28;19928;-76
2022/03/15 06:38:20;;;;;;;;;;;;;;;5.03;94.07;102606.63;5104817;28;19967;-76
2022/03/15 06:40:46;;;;;;;;;;;;;;;5.05;93.58;102600.03;5103605;28;19930;-76
2022/03/15 06:43:13;;;;;;;;;;;;;;;5.06;93.57;102597.56;5104229;28;19975;-77
2022/03/15 06:45:41;;;;;;;;;;;;;;;5.10;92.99;102589.41;5108262;28;20350;-77
2022/03/15 06:48:06;;;;;;;;;;;;;;;5.13;93.44;102588.75;5109188;28;20101;-76
2022/03/15 06:50:31;;;;;;;;;;;;;;;5.17;92.96;102589.88;5108263;27;20354;-76
2022/03/15 06:52:57;;;;;;;;;;;;;;;5.19;93.11;102589.22;5110506;28;19951;-76
2022/03/15 06:55:22;;;;;;;;;;;;;;;5.22;93.21;102584.38;5105916;28;19919;-75
2022/03/15 06:57:47;;;;;;;;;;;;;;;5.25;92.83;102584.59;5109473;28;19928;-76
2022/03/15 07:00:13;;;;;;;;;;;;;;;5.29;93.18;102584.06;5110013;28;20468;-77
2022/03/15 07:02:39;;;;;;;;;;;;;;;5.32;92.81;102579.19;5100521;28;20312;-75
2022/03/15 07:05:05;;;;;;;;;;;;;;;5.37;92.17;102582.09;5104037;28;20391;-75
2022/03/15 07:07:30;;;;;;;;;;;;;;;5.39;92.44;102586.53;5107754;28;19922;-76
2022/03/15 07:09:56;;;;;;;;;;;;;;;5.42;91.91;102585.00;5106520;28;19927;-75
2022/03/15 07:12:22;;;;;;;;;;;;;;;5.46;92.08;102592.09;5107596;28;19947;-76
2022/03/15 07:14:49;;;;;;;;;;;;;;;5.49;91.54;102588.13;5117834;28;19919;-75
2022/03/15 07:17:14;;;;;;;;;;;;;;;5.51;91.09;102590.78;5119216;28;19935;-76
2022/03/15 07:19:41;;;;;;;;;;;;;;;5.56;90.87;102592.91;5108244;28;20106;-76
2022/03/15 07:22:07;;;;;;;;;;;;;;;5.62;90.46;102587.38;5104914;28;19964;-76
2022/03/15 07:24:32;;;;;;;;;;;;;;;5.62;90.26;102583.16;5106099;28;20584;-76
2022/03/15 07:26:58;;;;;;;;;;;;;;;5.67;90.13;102580.09;5103747;28;20290;-76
2022/03/15 07:29:23;;;;;;;;;;;;;;;5.70;90.27;102582.84;5104283;28;19923;-76
2022/03/15 07:31:48;;;;;;;;;;;;;;;5.72;90.24;102577.09;5104734;28;19920;-75
2022/03/15 07:34:14;;;;;;;;;;;;;;;5.76;90.18;102571.44;5106813;28;20275;-77
2022/03/15 07:36:39;;;;;;;;;;;;;;;5.80;89.99;102570.91;5095650;28;19927;-76
2022/03/15 07:39:04;;;;;;;;;;;;;;;5.82;88.60;102564.22;5103180;28;20025;-77
2022/03/15 07:41:32;;;;;;;;;;;;;;;5.88;88.96;102564.72;5102927;28;19919;-77
2022/03/15 07:43:58;;;;;;;;;;;;;;;5.90;88.01;102555.50;5106633;28;19920;-76
2022/03/15 07:46:24;;;;;;;;;;;;;;;5.96;87.78;102561.88;5106050;28;20281;-76
2022/03/15 07:48:49;;;;;;;;;;;;;;;6.00;87.97;102559.63;5101612;28;20228;-75
2022/03/15 07:51:14;;;;;;;;;;;;;;;6.06;87.47;102554.09;5118500;27;19969;-76
2022/03/15 07:53:39;;;;;;;;;;;;;;;6.12;86.49;102551.97;5107737;28;19927;-76
2022/03/15 07:56:05;;;;;;;;;;;;;;;6.16;86.07;102551.44;5104087;28;19920;-76
2022/03/15 07:58:30;;;;;;;;;;;;;;;6.21;86.43;102549.22;5105905;28;20363;-76
2022/03/15 08:00:57;;;;;;;;;;;;;;;6.24;86.67;102552.88;5101852;28;19916;-76
2022/03/15 08:03:22;;;;;;;;;;;;;;;6.31;85.95;102555.13;5107267;28;19960;-74
2022/03/15 08:05:48;;;;;;;;;;;;;;;6.35;85.16;102554.53;5104043;28;19959;-77
2022/03/15 08:08:15;;;;;;;;;;;;;;;6.36;85.83;102548.63;5109115;28;20247;-76
2022/03/15 08:10:40;;;;;;;;;;;;;;;6.37;85.55;102557.19;5099239;28;19925;-76
2022/03/15 08:13:05;;;;;;;;;;;;;;;6.36;85.65;102561.41;5106068;28;19938;-77
2022/03/15 08:15:31;;;;;;;;;;;;;;;6.41;85.58;102562.63;5107469;28;20538;-77
2022/03/15 08:17:56;;;;;;;;;;;;;;;6.43;85.54;102556.00;5108216;28;20350;-76
2022/03/15 08:20:23;;;;;;;;;;;;;;;6.47;85.71;102557.09;5105352;28;19920;-75
2022/03/15 08:22:48;;;;;;;;;;;;;;;6.54;85.29;102553.28;5106903;28;19919;-75
2022/03/15 08:25:14;;;;;;;;;;;;;;;6.56;85.22;102547.53;5105452;28;20397;-75
2022/03/15 08:27:39;;;;;;;;;;;;;;;6.61;85.60;102545.28;5101238;28;19923;-75
2022/03/15 08:30:05;;;;;;;;;;;;;;;6.66;84.94;102555.03;5099389;28;19923;-74
2022/03/15 08:32:31;;;;;;;;;;;;;;;6.69;84.55;102541.63;5103694;28;19924;-76
2022/03/15 08:34:56;;;;;;;;;;;;;;;6.73;84.81;102546.13;5103274;28;19927;-77
2022/03/15 08:37:21;;;;;;;;;;;;;;;6.78;84.43;102543.91;5106787;28;20344;-76
2022/03/15 08:39:47;;;;;;;;;;;;;;;6.81;84.27;102539.03;5104303;28;20291;-75
2022/03/15 08:42:12;;;;;;;;;;;;;;;6.84;83.47;102534.13;5102899;28;19922;-76
2022/03/15 08:44:38;;;;;;;;;;;;;;;6.87;83.57;102526.66;5098933;28;20324;-74
2022/03/15 08:47:03;;;;;;;;;;;;;;;6.91;83.43;102533.75;5102222;28;19937;-75
2022/03/15 08:49:28;;;;;;;;;;;;;;;6.97;83.07;102529.94;5105811;28;19953;-75
2022/03/15 08:51:54;;;;;;;;;;;;;;;7.05;83.63;102540.72;5103789;28;20022;-75
2022/03/15 08:54:22;;;;;;;;;;;;;;;7.12;83.47;102531.81;5095938;28;19989;-75
2022/03/15 08:56:48;;;;;;;;;;;;;;;7.19;83.19;102531.44;5099637;28;19927;-76
2022/03/15 08:59:15;;;;;;;;;;;;;;;7.28;82.94;102526.03;5103876;28;19924;-73
2022/03/15 09:01:40;;;;;;;;;;;;;;;7.36;82.55;102524.91;5106334;28;19978;-75
2022/03/15 09:04:06;;;;;;;;;;;;;;;7.39;82.10;102523.44;5105688;28;19955;-76
2022/03/15 09:06:32;;;;;;;;;;;;;;;7.43;81.10;102521.97;5103758;28;19935;-76
2022/03/15 09:09:00;;;;;;;;;;;;;;;7.45;81.17;102513.59;5104101;28;19923;-74
2022/03/15 09:11:25;;;;;;;;;;;;;;;7.51;81.05;102519.13;5107471;28;19924;-76
2022/03/15 09:13:50;;;;;;;;;;;;;;;7.60;80.87;102512.88;5108014;28;20397;-76
2022/03/15 09:16:16;;;;;;;;;;;;;;;7.67;78.82;102515.03;5103188;28;19976;-75
2022/03/15 09:18:41;;;;;;;;;;;;;;;7.69;79.78;102508.34;5107296;28;19923;-75
2022/03/15 09:21:06;;;;;;;;;;;;;;;7.76;79.75;102516.50;5104424;28;19971;-75
2022/03/15 09:23:33;;;;;;;;;;;;;;;7.85;79.28;102512.81;5102217;28;20338;-74
2022/03/15 09:25:58;;;;;;;;;;;;;;;7.97;80.60;102513.59;5104850;28;20056;-76
2022/03/15 09:28:23;;;;;;;;;;;;;;;8.14;80.34;102525.81;5102653;28;20390;-75
2022/03/15 09:30:48;;;;;;;;;;;;;;;8.26;78.40;102515.47;5079870;28;20017;-76
2022/03/15 09:33:14;;;;;;;;;;;;;;;8.34;78.20;102517.72;5098839;28;19924;-74
2022/03/15 09:35:40;;;;;;;;;;;;;;;8.41;76.91;102523.28;5102314;28;19928;-76
2022/03/15 09:38:06;;;;;;;;;;;;;;;8.45;78.22;102517.56;5100770;28;20141;-76
2022/03/15 09:40:32;;;;;;;;;;;;;;;8.59;77.07;102524.44;5099323;28;19920;-74
2022/03/15 09:42:59;;;;;;;;;;;;;;;8.65;76.15;102513.66;5106257;28;19985;-77
2022/03/15 09:45:28;;;;;;;;;;;;;;;8.65;76.91;102511.97;5104841;28;20386;-76
2022/03/15 09:47:55;;;;;;;;;;;;;;;8.73;75.26;102512.44;5103540;28;20360;-76
2022/03/15 09:50:21;;;;;;;;;;;;;;;8.72;75.54;102505.56;5101816;28;20044;-76
2022/03/15 09:52:47;;;;;;;;;;;;;;;8.76;75.54;102507.53;5103986;28;20010;-76
2022/03/15 09:55:13;;;;;;;;;;;;;;;8.82;75.15;102508.78;5101697;28;19990;-77
2022/03/15 09:57:39;;;;;;;;;;;;;;;8.96;75.57;102501.03;5105989;28;20507;-75
2022/03/15 10:00:05;;;;;;;;;;;;;;;9.12;75.36;102507.19;5098296;28;19916;-75
2022/03/15 10:02:31;;;;;;;;;;;;;;;9.25;75.15;102503.69;5104706;28;20011;-74
2022/03/15 10:04:56;;;;;;;;;;;;;;;9.32;71.48;102492.97;5105407;28;19961;-74
2022/03/15 10:07:21;;;;;;;;;;;;;;;9.26;72.93;102490.03;5110190;28;19996;-75
2022/03/15 10:09:47;;;;;;;;;;;;;;;9.29;71.77;102481.66;5109725;28;19924;-75
2022/03/15 10:12:12;;;;;;;;;;;;;;;9.29;72.02;102490.25;5110577;28;19913;-75
2022/03/15 10:14:41;;;;;;;;;;;;;;;9.37;71.94;102482.97;5104259;28;19930;-76
2022/03/15 10:17:07;;;;;;;;;;;;;;;9.50;72.48;102485.47;5101674;28;20362;-77
2022/03/15 10:19:32;;;;;;;;;;;;;;;9.59;70.19;102482.56;5102601;28;19934;-75
2022/03/15 10:21:58;;;;;;;;;;;;;;;9.60;72.66;102477.50;5104305;28;19919;-76
2022/03/15 10:24:25;;;;;;;;;;;;;;;9.72;70.49;102471.31;5103577;28;19916;-75
2022/03/15 10:26:52;;;;;;;;;;;;;;;9.74;69.98;102475.72;5104716;28;19942;-74
2022/03/15 10:29:17;;;;;;;;;;;;;;;9.73;70.86;102465.38;5100330;28;20420;-75
2022/03/15 10:31:43;;;;;;;;;;;;;;;9.80;71.63;102464.91;5105558;28;20006;-75
2022/03/15 10:34:09;;;;;;;;;;;;;;;9.90;71.65;102467.22;5104992;28;19916;-75
2022/03/15 10:36:36;;;;;;;;;;;;;;;10.02;69.24;102454.16;5103014;28;20324;-75
2022/03/15 10:39:02;;;;;;;;;;;;;;;10.11;70.04;102452.97;5103911;28;19964;-76
2022/03/15 10:41:27;;;;;;;;;;;;;;;10.21;68.54;102457.81;5098185;28;19928;-75
2022/03/15 10:43:53;;;;;;;;;;;;;;;10.26;69.44;102454.66;5102827;28;20307;-76
2022/03/15 10:46:21;;;;;;;;;;;;;;;10.37;69.95;102461.25;5099606;28;20378;-75
2022/03/15 10:48:47;;;;;;;;;;;;;;;10.49;70.36;102454.19;5105698;28;20007;-77
2022/03/15 10:51:16;;;;;;;;;;;;;;;10.65;70.66;102441.34;5105951;28;20026;-76
2022/03/15 10:53:45;;;;;;;;;;;;;;;10.78;70.73;102445.44;5103879;28;19931;-76
2022/03/15 10:56:13;;;;;;;;;;;;;;;10.87;67.08;102440.81;5103534;28;19926;-76
2022/03/15 10:59:04;;;;;;;;;;;;;;;10.79;67.50;102436.91;5099998;28;19924;-73
2022/03/15 11:01:35;;;;;;;;;;;;;;;10.65;67.04;102435.31;5098722;28;20366;-75
2022/03/15 11:04:03;;;;;;;;;;;;;;;10.49;67.33;102433.63;5105010;28;19947;-76
2022/03/15 11:06:43;;;;;;;;;;;;;;;10.56;68.86;102430.59;5103608;28;19926;-75
2022/03/15 11:09:27;;;;;;;;;;;;;;;10.59;68.90;102427.28;5104735;28;20475;-76
2022/03/15 11:12:00;;;;;;;;;;;;;;;10.72;69.07;102429.69;5101580;28;19936;-76
2022/03/15 11:14:49;;;;;;;;;;;;;;;10.67;66.44;102423.41;5101462;28;19955;-76
2022/03/15 11:17:16;;;;;;;;;;;;;;;10.42;67.14;102413.53;5102183;28;19915;-75
2022/03/15 11:19:45;;;;;;;;;;;;;;;10.26;67.59;102416.09;5102286;28;19963;-74
2022/03/15 11:22:11;;;;;;;;;;;;;;;10.11;68.29;102416.97;5105547;28;19920;-75
2022/03/15 11:24:42;;;;;;;;;;;;;;;10.05;68.97;102411.50;5103421;28;19960;-75
2022/03/15 11:27:08;;;;;;;;;;;;;;;10.01;70.00;102399.31;5099378;28;19920;-75
2022/03/15 11:29:40;;;;;;;;;;;;;;;9.99;69.91;102403.47;5100113;28;20589;-76
2022/03/15 11:32:06;;;;;;;;;;;;;;;10.09;69.88;102387.75;5107568;28;19924;-76
2022/03/15 11:34:33;;;;;;;;;;;;;;;10.24;69.32;102384.25;5103767;28;19923;-76
2022/03/15 11:36:59;;;;;;;;;;;;;;;10.27;69.13;102395.59;5109412;28;19938;-74
2022/03/15 11:39:25;;;;;;;;;;;;;;;10.20;69.78;102399.50;5101494;28;19955;-76
2022/03/15 11:41:50;;;;;;;;;;;;;;;10.24;69.77;102390.28;5108874;28;19916;-74
2022/03/15 11:44:31;;;;;;;;;;;;;;;10.31;70.37;102388.91;5106164;28;19931;-75
2022/03/15 11:47:23;;;;;;;;;;;;;;;10.42;69.99;102375.84;5106480;28;19919;-75
2022/03/15 11:49:54;;;;;;;;;;;;;;;10.38;69.40;102375.63;5101413;28;20010;-76
2022/03/15 11:52:36;;;;;;;;;;;;;;;10.39;69.94;102377.38;5106537;28;20329;-74
2022/03/15 11:55:12;;;;;;;;;;;;;;;10.59;69.86;102373.28;5107584;28;19916;-76
2022/03/15 11:57:43;;;;;;;;;;;;;;;10.74;67.72;102368.94;5107057;27;19919;-75
2022/03/15 12:00:09;;;;;;;;;;;;;;;10.71;68.25;102361.91;5110047;28;20021;-75
2022/03/15 12:02:38;;;;;;;;;;;;;;;10.77;68.40;102361.34;5105521;28;20043;-75
2022/03/15 12:05:17;;;;;;;;;;;;;;;10.76;68.81;102356.13;5109336;28;19923;-74
2022/03/15 12:07:46;;;;;;;;;;;;;;;10.94;68.10;102351.91;5105270;28;19927;-74
2022/03/15 12:10:22;;;;;;;;;;;;;;;11.09;68.24;102342.38;5107474;28;20267;-75
2022/03/15 12:12:57;;;;;;;;;;;;;;;11.11;67.20;102347.63;5105271;27;19931;-74
2022/03/15 12:15:33;;;;;;;;;;;;;;;11.01;67.98;102343.69;5108550;28;19948;-74
2022/03/15 12:20:48;;;;;;;;;;;;;;;10.86;68.59;102341.25;5107468;28;19922;-74
2022/03/15 12:23:21;;;;;;;;;;;;;;;10.81;68.57;102339.25;5107652;28;19923;-75
2022/03/15 12:25:52;;;;;;;;;;;;;;;10.76;68.89;102330.41;5107514;28;20460;-76
2022/03/15 12:28:25;;;;;;;;;;;;;;;10.86;69.35;102330.94;5106722;28;19943;-74
2022/03/15 12:30:52;;;;;;;;;;;;;;;11.04;68.75;102325.81;5106700;28;19958;-74
2022/03/15 12:33:25;;;;;;;;;;;;;;;11.11;68.68;102325.31;5107118;28;19919;-74
2022/03/15 12:35:57;;;;;;;;;;;;;;;11.25;68.68;102316.56;5108313;28;19916;-74
2022/03/15 12:38:31;;;;;;;;;;;;;;;11.31;67.66;102315.09;5100305;28;19963;-74
2022/03/15 12:40:56;;;;;;;;;;;;;;;11.28;67.61;102319.31;5106963;28;19926;-74
2022/03/15 12:43:22;;;;;;;;;;;;;;;11.18;67.46;102322.25;5100516;28;20023;-74
2022/03/15 12:45:48;;;;;;;;;;;;;;;11.15;68.45;102316.94;5105212;28;20027;-75
2022/03/15 12:48:16;;;;;;;;;;;;;;;11.14;68.26;102320.31;5106073;28;20009;-75